sensor_id;sensor_type;location;lat;lon;timestamp;pressure;altitude;pressure_sealevel;temperature;humidity
61528;BME280;47395;42.032;-8.634;2023-08-24T00:00:52;75425.47;;;-148.63;68.08
61528;BME280;47395;42.032;-8.634;2023-08-24T00:02:53;75427.47;;;-148.63;68.33
61528;BME280;47395;42.032;-8.634;2023-08-24T00:04:54;75439.47;;;-148.63;68.63
61528;BME280;47395;42.032;-8.634;2023-08-24T00:06:57;75451.47;;;-148.63;68.86
61528;BME280;47395;42.032;-8.634;2023-08-24T00:08:59;75475.50;;;-148.63;69.47
61528;BME280;47395;42.032;-8.634;2023-08-24T00:11:01;75475.50;;;-148.63;69.47
61528;BME280;47395;42.032;-8.634;2023-08-24T00:13:02;75491.50;;;-148.63;69.98
61528;BME280;47395;42.032;-8.634;2023-08-24T00:15:04;75501.50;;;-148.63;70.64
61528;BME280;47395;42.032;-8.634;2023-08-24T00:17:05;75511.50;;;-148.63;70.68
61528;BME280;47395;42.032;-8.634;2023-08-24T00:19:06;75511.50;;;-148.63;71.08
61528;BME280;47395;42.032;-8.634;2023-08-24T00:21:07;75501.50;;;-148.63;70.68
61528;BME280;47395;42.032;-8.634;2023-08-24T00:23:08;75535.50;;;-148.63;71.55
61528;BME280;47395;42.032;-8.634;2023-08-24T00:25:09;75531.50;;;-148.63;71.67
61528;BME280;47395;42.032;-8.634;2023-08-24T00:27:10;75525.50;;;-148.63;71.73
61528;BME280;47395;42.032;-8.634;2023-08-24T00:29:12;75521.50;;;-148.63;71.40
61528;BME280;47395;42.032;-8.634;2023-08-24T00:31:15;75539.50;;;-148.63;71.22
61528;BME280;47395;42.032;-8.634;2023-08-24T00:33:17;75545.50;;;-148.63;70.99
61528;BME280;47395;42.032;-8.634;2023-08-24T00:35:17;75549.50;;;-148.63;71.03
61528;BME280;47395;42.032;-8.634;2023-08-24T00:37:18;75551.50;;;-148.63;70.77
61528;BME280;47395;42.032;-8.634;2023-08-24T00:39:19;75551.50;;;-148.63;70.57
61528;BME280;47395;42.032;-8.634;2023-08-24T00:41:21;75535.50;;;-148.63;70.32
61528;BME280;47395;42.032;-8.634;2023-08-24T00:43:23;75541.50;;;-148.63;70.10
61528;BME280;47395;42.032;-8.634;2023-08-24T00:45:24;75553.50;;;-148.63;70.16
61528;BME280;47395;42.032;-8.634;2023-08-24T00:47:26;75545.50;;;-148.63;70.10
61528;BME280;47395;42.032;-8.634;2023-08-24T00:49:27;75549.50;;;-148.63;69.74
61528;BME280;47395;42.032;-8.634;2023-08-24T00:51:28;75533.50;;;-148.63;69.67
61528;BME280;47395;42.032;-8.634;2023-08-24T00:53:31;75537.50;;;-148.63;69.13
61528;BME280;47395;42.032;-8.634;2023-08-24T00:55:32;75549.50;;;-148.63;69.45
61528;BME280;47395;42.032;-8.634;2023-08-24T00:57:33;75553.50;;;-148.63;69.32
61528;BME280;47395;42.032;-8.634;2023-08-24T00:59:36;75539.50;;;-148.63;68.85
61528;BME280;47395;42.032;-8.634;2023-08-24T01:01:38;75541.50;;;-148.63;68.68
61528;BME280;47395;42.032;-8.634;2023-08-24T01:03:40;75539.50;;;-148.63;68.55
61528;BME280;47395;42.032;-8.634;2023-08-24T01:05:42;75537.50;;;-148.63;68.25
61528;BME280;47395;42.032;-8.634;2023-08-24T01:07:44;75537.50;;;-148.63;68.18
61528;BME280;47395;42.032;-8.634;2023-08-24T01:09:45;75521.50;;;-148.63;67.81
61528;BME280;47395;42.032;-8.634;2023-08-24T01:11:56;75517.50;;;-148.63;67.95
61528;BME280;47395;42.032;-8.634;2023-08-24T01:16:23;75519.50;;;-148.63;67.39
61528;BME280;47395;42.032;-8.634;2023-08-24T01:18:28;75493.50;;;-148.63;67.16
61528;BME280;47395;42.032;-8.634;2023-08-24T01:20:32;75507.50;;;-148.63;67.51
61528;BME280;47395;42.032;-8.634;2023-08-24T01:22:51;75523.50;;;-148.63;67.57
61528;BME280;47395;42.032;-8.634;2023-08-24T01:25:16;75549.50;;;-148.63;68.82
61528;BME280;47395;42.032;-8.634;2023-08-24T01:27:18;75529.50;;;-148.63;68.15
61528;BME280;47395;42.032;-8.634;2023-08-24T01:29:20;75505.50;;;-148.63;67.69
61528;BME280;47395;42.032;-8.634;2023-08-24T01:31:21;75511.50;;;-148.63;67.62
61528;BME280;47395;42.032;-8.634;2023-08-24T01:33:22;75533.50;;;-148.63;67.88
61528;BME280;47395;42.032;-8.634;2023-08-24T01:35:23;75529.50;;;-148.63;68.34
61528;BME280;47395;42.032;-8.634;2023-08-24T01:37:25;75541.50;;;-148.63;68.60
61528;BME280;47395;42.032;-8.634;2023-08-24T01:41:53;75535.50;;;-148.63;68.54
61528;BME280;47395;42.032;-8.634;2023-08-24T01:43:58;75531.50;;;-148.63;68.36
61528;BME280;47395;42.032;-8.634;2023-08-24T01:46:05;75527.50;;;-148.63;67.62
61528;BME280;47395;42.032;-8.634;2023-08-24T01:48:09;75527.50;;;-148.63;67.58
61528;BME280;47395;42.032;-8.634;2023-08-24T01:50:11;75531.50;;;-148.63;67.51
61528;BME280;47395;42.032;-8.634;2023-08-24T01:52:12;75551.50;;;-148.63;67.95
61528;BME280;47395;42.032;-8.634;2023-08-24T01:54:13;75539.50;;;-148.63;67.88
61528;BME280;47395;42.032;-8.634;2023-08-24T01:56:15;75537.50;;;-148.63;67.70
61528;BME280;47395;42.032;-8.634;2023-08-24T01:58:16;75529.50;;;-148.63;67.64
61528;BME280;47395;42.032;-8.634;2023-08-24T02:00:17;75565.50;;;-148.63;68.41
61528;BME280;47395;42.032;-8.634;2023-08-24T02:02:21;75559.50;;;-148.63;68.13
61528;BME280;47395;42.032;-8.634;2023-08-24T02:04:23;75557.50;;;-148.63;68.27
61528;BME280;47395;42.032;-8.634;2023-08-24T02:06:23;75551.50;;;-148.63;68.15
61528;BME280;47395;42.032;-8.634;2023-08-24T02:08:24;75557.50;;;-148.63;68.07
61528;BME280;47395;42.032;-8.634;2023-08-24T02:10:25;75559.50;;;-148.63;68.21
61528;BME280;47395;42.032;-8.634;2023-08-24T02:12:26;75557.50;;;-148.63;68.06
61528;BME280;47395;42.032;-8.634;2023-08-24T02:14:27;75541.50;;;-148.63;67.61
61528;BME280;47395;42.032;-8.634;2023-08-24T02:16:30;75561.50;;;-148.63;67.66
61528;BME280;47395;42.032;-8.634;2023-08-24T02:18:31;75553.50;;;-148.63;67.23
61528;BME280;47395;42.032;-8.634;2023-08-24T02:20:36;75555.50;;;-148.63;67.17
61528;BME280;47395;42.032;-8.634;2023-08-24T02:22:38;75565.50;;;-148.63;67.28
61528;BME280;47395;42.032;-8.634;2023-08-24T02:24:39;75577.50;;;-148.63;67.51
61528;BME280;47395;42.032;-8.634;2023-08-24T02:26:40;75575.50;;;-148.63;67.63
61528;BME280;47395;42.032;-8.634;2023-08-24T02:28:40;75585.53;;;-148.63;67.60
61528;BME280;47395;42.032;-8.634;2023-08-24T02:30:44;75569.50;;;-148.63;67.43
61528;BME280;47395;42.032;-8.634;2023-08-24T02:32:44;75583.53;;;-148.63;67.78
61528;BME280;47395;42.032;-8.634;2023-08-24T02:34:47;75573.50;;;-148.63;67.32
61528;BME280;47395;42.032;-8.634;2023-08-24T02:36:49;75571.50;;;-148.63;67.12
61528;BME280;47395;42.032;-8.634;2023-08-24T02:38:52;75561.50;;;-148.63;67.25
61528;BME280;47395;42.032;-8.634;2023-08-24T02:41:03;75553.50;;;-148.63;67.03
61528;BME280;47395;42.032;-8.634;2023-08-24T02:43:05;75549.50;;;-148.63;66.55
61528;BME280;47395;42.032;-8.634;2023-08-24T02:45:06;75523.50;;;-148.63;66.05
61528;BME280;47395;42.032;-8.634;2023-08-24T02:47:07;75537.50;;;-148.63;66.07
61528;BME280;47395;42.032;-8.634;2023-08-24T02:49:08;75545.50;;;-148.63;66.42
61528;BME280;47395;42.032;-8.634;2023-08-24T02:51:08;75545.50;;;-148.63;66.15
61528;BME280;47395;42.032;-8.634;2023-08-24T02:53:11;75539.50;;;-148.63;66.20
61528;BME280;47395;42.032;-8.634;2023-08-24T02:55:13;75541.50;;;-148.63;66.21
61528;BME280;47395;42.032;-8.634;2023-08-24T02:57:13;75545.50;;;-148.63;66.05
61528;BME280;47395;42.032;-8.634;2023-08-24T02:59:14;75537.50;;;-148.63;66.48
61528;BME280;47395;42.032;-8.634;2023-08-24T03:01:15;75547.50;;;-148.63;66.31
61528;BME280;47395;42.032;-8.634;2023-08-24T03:03:16;75547.50;;;-148.63;66.36
61528;BME280;47395;42.032;-8.634;2023-08-24T03:05:18;75541.50;;;-148.63;65.77
61528;BME280;47395;42.032;-8.634;2023-08-24T03:07:19;75557.50;;;-148.63;66.22
61528;BME280;47395;42.032;-8.634;2023-08-24T03:09:21;75541.50;;;-148.63;66.12
61528;BME280;47395;42.032;-8.634;2023-08-24T03:11:22;75557.50;;;-148.63;66.09
61528;BME280;47395;42.032;-8.634;2023-08-24T03:13:24;75551.50;;;-148.63;65.65
61528;BME280;47395;42.032;-8.634;2023-08-24T03:15:25;75569.50;;;-148.63;66.03
61528;BME280;47395;42.032;-8.634;2023-08-24T03:17:27;75549.50;;;-148.63;66.11
61528;BME280;47395;42.032;-8.634;2023-08-24T03:19:28;75541.50;;;-148.63;65.69
61528;BME280;47395;42.032;-8.634;2023-08-24T03:21:29;75513.50;;;-148.63;64.99
61528;BME280;47395;42.032;-8.634;2023-08-24T03:23:31;75525.50;;;-148.63;64.70
61528;BME280;47395;42.032;-8.634;2023-08-24T03:25:35;75517.50;;;-148.63;64.49
61528;BME280;47395;42.032;-8.634;2023-08-24T03:27:39;75519.50;;;-148.63;64.30
61528;BME280;47395;42.032;-8.634;2023-08-24T03:29:40;75497.50;;;-148.63;63.76
61528;BME280;47395;42.032;-8.634;2023-08-24T03:31:41;75495.50;;;-148.63;63.48
61528;BME280;47395;42.032;-8.634;2023-08-24T03:33:41;75481.50;;;-148.63;62.98
61528;BME280;47395;42.032;-8.634;2023-08-24T03:35:42;75477.50;;;-148.63;62.67
61528;BME280;47395;42.032;-8.634;2023-08-24T03:37:43;75479.50;;;-148.63;62.53
61528;BME280;47395;42.032;-8.634;2023-08-24T03:39:44;75491.50;;;-148.63;62.81
61528;BME280;47395;42.032;-8.634;2023-08-24T03:41:45;75485.50;;;-148.63;62.47
61528;BME280;47395;42.032;-8.634;2023-08-24T03:43:46;75479.50;;;-148.63;62.62
61528;BME280;47395;42.032;-8.634;2023-08-24T03:45:48;75477.50;;;-148.63;62.30
61528;BME280;47395;42.032;-8.634;2023-08-24T03:47:49;75477.50;;;-148.63;61.97
61528;BME280;47395;42.032;-8.634;2023-08-24T03:49:51;75473.47;;;-148.63;61.98
61528;BME280;47395;42.032;-8.634;2023-08-24T03:51:52;75459.47;;;-148.63;61.69
61528;BME280;47395;42.032;-8.634;2023-08-24T03:53:53;75461.47;;;-148.63;61.82
61528;BME280;47395;42.032;-8.634;2023-08-24T03:55:54;75455.47;;;-148.63;61.71
61528;BME280;47395;42.032;-8.634;2023-08-24T03:57:57;75455.47;;;-148.63;61.66
61528;BME280;47395;42.032;-8.634;2023-08-24T04:00:01;75449.47;;;-148.63;61.35
61528;BME280;47395;42.032;-8.634;2023-08-24T04:06:54;75441.47;;;-148.63;61.63
61528;BME280;47395;42.032;-8.634;2023-08-24T04:08:56;75427.47;;;-148.63;61.29
61528;BME280;47395;42.032;-8.634;2023-08-24T04:10:58;75445.47;;;-148.63;61.39
61528;BME280;47395;42.032;-8.634;2023-08-24T04:12:59;75445.47;;;-148.63;61.21
61528;BME280;47395;42.032;-8.634;2023-08-24T04:15:00;75449.47;;;-148.63;61.11
61528;BME280;47395;42.032;-8.634;2023-08-24T04:17:02;75457.47;;;-148.63;61.22
61528;BME280;47395;42.032;-8.634;2023-08-24T04:19:04;75461.47;;;-148.63;61.21
61528;BME280;47395;42.032;-8.634;2023-08-24T04:21:05;75477.50;;;-148.63;61.26
61528;BME280;47395;42.032;-8.634;2023-08-24T04:23:06;75471.47;;;-148.63;61.42
61528;BME280;47395;42.032;-8.634;2023-08-24T04:25:07;75471.47;;;-148.63;61.37
61528;BME280;47395;42.032;-8.634;2023-08-24T04:27:08;75459.47;;;-148.63;61.23
61528;BME280;47395;42.032;-8.634;2023-08-24T04:29:11;75471.47;;;-148.63;61.37
61528;BME280;47395;42.032;-8.634;2023-08-24T04:31:11;75461.47;;;-148.63;61.27
61528;BME280;47395;42.032;-8.634;2023-08-24T04:33:12;75471.47;;;-148.63;61.37
61528;BME280;47395;42.032;-8.634;2023-08-24T04:35:13;75461.47;;;-148.63;61.26
61528;BME280;47395;42.032;-8.634;2023-08-24T04:37:14;75465.47;;;-148.63;61.13
61528;BME280;47395;42.032;-8.634;2023-08-24T04:39:15;75459.47;;;-148.63;61.34
61528;BME280;47395;42.032;-8.634;2023-08-24T04:41:16;75461.47;;;-148.63;60.89
61528;BME280;47395;42.032;-8.634;2023-08-24T04:43:18;75467.47;;;-148.63;60.96
61528;BME280;47395;42.032;-8.634;2023-08-24T04:45:19;75467.47;;;-148.63;60.95
61528;BME280;47395;42.032;-8.634;2023-08-24T04:47:20;75475.50;;;-148.63;61.11
61528;BME280;47395;42.032;-8.634;2023-08-24T04:49:20;75483.50;;;-148.63;61.10
61528;BME280;47395;42.032;-8.634;2023-08-24T04:51:21;75483.50;;;-148.63;61.13
61528;BME280;47395;42.032;-8.634;2023-08-24T04:53:22;75483.50;;;-148.63;61.06
61528;BME280;47395;42.032;-8.634;2023-08-24T04:55:23;75477.50;;;-148.63;61.05
61528;BME280;47395;42.032;-8.634;2023-08-24T04:57:24;75471.47;;;-148.63;60.83
61528;BME280;47395;42.032;-8.634;2023-08-24T04:59:25;75473.47;;;-148.63;60.86
61528;BME280;47395;42.032;-8.634;2023-08-24T05:01:27;75479.50;;;-148.63;61.07
61528;BME280;47395;42.032;-8.634;2023-08-24T05:03:28;75495.50;;;-148.63;61.37
61528;BME280;47395;42.032;-8.634;2023-08-24T05:05:30;75493.50;;;-148.63;61.44
61528;BME280;47395;42.032;-8.634;2023-08-24T05:07:31;75491.50;;;-148.63;61.32
61528;BME280;47395;42.032;-8.634;2023-08-24T05:09:34;75499.50;;;-148.63;61.32
61528;BME280;47395;42.032;-8.634;2023-08-24T05:11:34;75495.50;;;-148.63;61.31
61528;BME280;47395;42.032;-8.634;2023-08-24T05:13:35;75497.50;;;-148.63;61.39
61528;BME280;47395;42.032;-8.634;2023-08-24T05:15:36;75495.50;;;-148.63;61.40
61528;BME280;47395;42.032;-8.634;2023-08-24T05:17:37;75501.50;;;-148.63;61.51
61528;BME280;47395;42.032;-8.634;2023-08-24T05:19:38;75503.50;;;-148.63;61.80
61528;BME280;47395;42.032;-8.634;2023-08-24T05:21:39;75505.50;;;-148.63;61.71
61528;BME280;47395;42.032;-8.634;2023-08-24T05:23:40;75505.50;;;-148.63;61.66
61528;BME280;47395;42.032;-8.634;2023-08-24T05:25:40;75517.50;;;-148.63;61.72
61528;BME280;47395;42.032;-8.634;2023-08-24T05:27:41;75523.50;;;-148.63;61.98
61528;BME280;47395;42.032;-8.634;2023-08-24T05:29:43;75527.50;;;-148.63;61.80
61528;BME280;47395;42.032;-8.634;2023-08-24T05:31:45;75527.50;;;-148.63;61.93
61528;BME280;47395;42.032;-8.634;2023-08-24T05:33:47;75539.50;;;-148.63;62.03
61528;BME280;47395;42.032;-8.634;2023-08-24T05:35:49;75537.50;;;-148.63;62.17
61528;BME280;47395;42.032;-8.634;2023-08-24T05:37:51;75539.50;;;-148.63;62.34
61528;BME280;47395;42.032;-8.634;2023-08-24T05:39:52;75539.50;;;-148.63;62.30
61528;BME280;47395;42.032;-8.634;2023-08-24T05:41:53;75553.50;;;-148.63;62.43
61528;BME280;47395;42.032;-8.634;2023-08-24T05:43:54;75559.50;;;-148.63;62.60
61528;BME280;47395;42.032;-8.634;2023-08-24T05:45:56;75557.50;;;-148.63;62.83
61528;BME280;47395;42.032;-8.634;2023-08-24T05:47:56;75559.50;;;-148.63;62.72
61528;BME280;47395;42.032;-8.634;2023-08-24T05:49:57;75569.50;;;-148.63;62.83
61528;BME280;47395;42.032;-8.634;2023-08-24T05:51:58;75567.50;;;-148.63;62.86
61528;BME280;47395;42.032;-8.634;2023-08-24T05:54:00;75571.50;;;-148.63;62.66
61528;BME280;47395;42.032;-8.634;2023-08-24T05:56:04;75579.53;;;-148.63;62.62
61528;BME280;47395;42.032;-8.634;2023-08-24T05:58:06;75585.53;;;-148.63;62.71
61528;BME280;47395;42.032;-8.634;2023-08-24T06:00:08;75581.53;;;-148.63;62.74
61528;BME280;47395;42.032;-8.634;2023-08-24T06:02:12;75581.53;;;-148.63;62.51
61528;BME280;47395;42.032;-8.634;2023-08-24T06:04:13;75581.53;;;-148.63;62.43
61528;BME280;47395;42.032;-8.634;2023-08-24T06:06:16;75583.53;;;-148.63;62.17
61528;BME280;47395;42.032;-8.634;2023-08-24T06:08:17;75577.50;;;-148.63;62.04
61528;BME280;47395;42.032;-8.634;2023-08-24T06:10:18;75579.53;;;-148.63;61.71
61528;BME280;47395;42.032;-8.634;2023-08-24T06:12:19;75569.50;;;-148.63;61.74
61528;BME280;47395;42.032;-8.634;2023-08-24T06:14:21;75571.50;;;-148.63;61.35
61528;BME280;47395;42.032;-8.634;2023-08-24T06:16:22;75579.53;;;-148.63;61.57
61528;BME280;47395;42.032;-8.634;2023-08-24T06:18:23;75577.50;;;-148.63;61.57
61528;BME280;47395;42.032;-8.634;2023-08-24T06:20:24;75573.50;;;-148.63;61.61
61528;BME280;47395;42.032;-8.634;2023-08-24T06:22:25;75567.50;;;-148.63;61.31
61528;BME280;47395;42.032;-8.634;2023-08-24T06:24:26;75557.50;;;-148.63;61.13
61528;BME280;47395;42.032;-8.634;2023-08-24T06:26:27;75575.50;;;-148.63;61.14
61528;BME280;47395;42.032;-8.634;2023-08-24T06:28:28;75561.50;;;-148.63;61.08
61528;BME280;47395;42.032;-8.634;2023-08-24T06:30:29;75571.50;;;-148.63;61.15
61528;BME280;47395;42.032;-8.634;2023-08-24T06:32:33;75561.50;;;-148.63;60.83
61528;BME280;47395;42.032;-8.634;2023-08-24T06:34:34;75571.50;;;-148.63;61.02
61528;BME280;47395;42.032;-8.634;2023-08-24T06:36:35;75569.50;;;-148.63;61.38
61528;BME280;47395;42.032;-8.634;2023-08-24T06:38:36;75561.50;;;-148.63;61.11
61528;BME280;47395;42.032;-8.634;2023-08-24T06:40:37;75571.50;;;-148.63;60.97
61528;BME280;47395;42.032;-8.634;2023-08-24T06:42:41;75561.50;;;-148.63;60.91
61528;BME280;47395;42.032;-8.634;2023-08-24T06:44:42;75557.50;;;-148.63;60.76
61528;BME280;47395;42.032;-8.634;2023-08-24T06:46:45;75569.50;;;-148.63;60.62
61528;BME280;47395;42.032;-8.634;2023-08-24T06:48:48;75575.50;;;-148.63;60.83
61528;BME280;47395;42.032;-8.634;2023-08-24T06:50:49;75579.53;;;-148.63;60.83
61528;BME280;47395;42.032;-8.634;2023-08-24T06:52:50;75571.50;;;-148.63;61.00
61528;BME280;47395;42.032;-8.634;2023-08-24T06:54:51;75569.50;;;-148.63;60.34
61528;BME280;47395;42.032;-8.634;2023-08-24T06:56:54;75549.50;;;-148.63;60.31
61528;BME280;47395;42.032;-8.634;2023-08-24T06:58:55;75557.50;;;-148.63;60.20
61528;BME280;47395;42.032;-8.634;2023-08-24T07:00:55;75541.50;;;-148.63;59.98
61528;BME280;47395;42.032;-8.634;2023-08-24T07:02:58;75529.50;;;-148.63;59.63
61528;BME280;47395;42.032;-8.634;2023-08-24T07:04:59;75531.50;;;-148.63;59.48
61528;BME280;47395;42.032;-8.634;2023-08-24T07:07:01;75517.50;;;-148.63;59.58
61528;BME280;47395;42.032;-8.634;2023-08-24T07:09:03;75507.50;;;-148.63;59.16
61528;BME280;47395;42.032;-8.634;2023-08-24T07:11:08;75515.50;;;-148.63;59.08
61528;BME280;47395;42.032;-8.634;2023-08-24T07:13:10;75517.50;;;-148.63;58.89
61528;BME280;47395;42.032;-8.634;2023-08-24T07:15:12;75509.50;;;-148.63;58.88
61528;BME280;47395;42.032;-8.634;2023-08-24T07:17:14;75521.50;;;-148.63;59.02
61528;BME280;47395;42.032;-8.634;2023-08-24T07:19:15;75513.50;;;-148.63;58.72
61528;BME280;47395;42.032;-8.634;2023-08-24T07:21:16;75515.50;;;-148.63;58.40
61528;BME280;47395;42.032;-8.634;2023-08-24T07:23:18;75521.50;;;-148.63;58.46
61528;BME280;47395;42.032;-8.634;2023-08-24T07:25:19;75515.50;;;-148.63;58.42
61528;BME280;47395;42.032;-8.634;2023-08-24T07:27:22;75517.50;;;-148.63;58.22
61528;BME280;47395;42.032;-8.634;2023-08-24T07:29:23;75509.50;;;-148.63;58.06
61528;BME280;47395;42.032;-8.634;2023-08-24T07:31:27;75503.50;;;-148.63;57.80
61528;BME280;47395;42.032;-8.634;2023-08-24T07:33:29;75517.50;;;-148.63;57.59
61528;BME280;47395;42.032;-8.634;2023-08-24T07:35:33;75509.50;;;-148.63;57.53
61528;BME280;47395;42.032;-8.634;2023-08-24T07:37:34;75497.50;;;-148.63;57.63
61528;BME280;47395;42.032;-8.634;2023-08-24T07:39:34;75487.50;;;-148.63;57.25
61528;BME280;47395;42.032;-8.634;2023-08-24T07:41:35;75487.50;;;-148.63;57.16
61528;BME280;47395;42.032;-8.634;2023-08-24T07:43:36;75479.50;;;-148.63;57.13
61528;BME280;47395;42.032;-8.634;2023-08-24T07:45:38;75475.50;;;-148.63;56.85
61528;BME280;47395;42.032;-8.634;2023-08-24T07:47:44;75453.47;;;-148.63;56.37
61528;BME280;47395;42.032;-8.634;2023-08-24T07:49:45;75441.47;;;-148.63;56.04
61528;BME280;47395;42.032;-8.634;2023-08-24T07:51:46;75429.47;;;-148.63;55.71
61528;BME280;47395;42.032;-8.634;2023-08-24T07:53:48;75423.47;;;-148.63;55.33
61528;BME280;47395;42.032;-8.634;2023-08-24T07:55:53;75425.47;;;-148.63;55.37
61528;BME280;47395;42.032;-8.634;2023-08-24T07:57:54;75429.47;;;-148.63;55.10
61528;BME280;47395;42.032;-8.634;2023-08-24T07:59:55;75437.47;;;-148.63;55.43
61528;BME280;47395;42.032;-8.634;2023-08-24T08:01:56;75435.47;;;-148.63;55.47
61528;BME280;47395;42.032;-8.634;2023-08-24T08:03:57;75425.47;;;-148.63;55.31
61528;BME280;47395;42.032;-8.634;2023-08-24T08:05:58;75411.47;;;-148.63;54.81
61528;BME280;47395;42.032;-8.634;2023-08-24T08:07:59;75389.47;;;-148.63;54.58
61528;BME280;47395;42.032;-8.634;2023-08-24T08:09:59;75403.47;;;-148.63;54.62
61528;BME280;47395;42.032;-8.634;2023-08-24T08:12:00;75383.47;;;-148.63;54.70
61528;BME280;47395;42.032;-8.634;2023-08-24T08:14:01;75383.47;;;-148.63;54.22
61528;BME280;47395;42.032;-8.634;2023-08-24T08:16:05;75369.47;;;-148.63;54.06
61528;BME280;47395;42.032;-8.634;2023-08-24T08:18:09;75347.44;;;-148.63;53.51
61528;BME280;47395;42.032;-8.634;2023-08-24T08:20:10;75355.47;;;-148.63;53.24
61528;BME280;47395;42.032;-8.634;2023-08-24T08:22:12;75349.47;;;-148.63;53.14
61528;BME280;47395;42.032;-8.634;2023-08-24T08:24:13;75345.44;;;-148.63;53.10
61528;BME280;47395;42.032;-8.634;2023-08-24T08:26:16;75333.44;;;-148.63;52.64
61528;BME280;47395;42.032;-8.634;2023-08-24T08:28:17;75323.44;;;-148.63;52.37
61528;BME280;47395;42.032;-8.634;2023-08-24T08:30:19;75297.44;;;-148.63;52.02
61528;BME280;47395;42.032;-8.634;2023-08-24T08:32:20;75249.44;;;-148.63;51.30
61528;BME280;47395;42.032;-8.634;2023-08-24T08:34:22;75227.44;;;-148.63;50.70
61528;BME280;47395;42.032;-8.634;2023-08-24T08:36:23;75205.41;;;-148.63;50.56
61528;BME280;47395;42.032;-8.634;2023-08-24T08:38:24;75185.41;;;-148.63;50.10
61528;BME280;47395;42.032;-8.634;2023-08-24T08:40:30;75167.41;;;-148.63;48.76
61528;BME280;47395;42.032;-8.634;2023-08-24T08:42:34;75145.41;;;-148.63;48.82
61528;BME280;47395;42.032;-8.634;2023-08-24T08:44:36;75121.41;;;-148.63;48.11
61528;BME280;47395;42.032;-8.634;2023-08-24T08:46:38;75119.41;;;-148.63;47.84
61528;BME280;47395;42.032;-8.634;2023-08-24T08:48:41;75111.41;;;-148.63;48.09
61528;BME280;47395;42.032;-8.634;2023-08-24T08:50:42;75121.41;;;-148.63;47.41
61528;BME280;47395;42.032;-8.634;2023-08-24T08:52:43;75109.41;;;-148.63;47.61
61528;BME280;47395;42.032;-8.634;2023-08-24T08:54:44;75085.41;;;-148.63;46.76
61528;BME280;47395;42.032;-8.634;2023-08-24T08:56:44;75133.41;;;-148.63;46.94
61528;BME280;47395;42.032;-8.634;2023-08-24T08:58:46;75185.41;;;-148.63;47.58
61528;BME280;47395;42.032;-8.634;2023-08-24T09:00:49;75117.41;;;-148.63;47.09
61528;BME280;47395;42.032;-8.634;2023-08-24T09:02:53;75043.38;;;-148.63;46.23
61528;BME280;47395;42.032;-8.634;2023-08-24T09:04:56;74995.38;;;-148.63;45.43
61528;BME280;47395;42.032;-8.634;2023-08-24T09:07:03;74869.38;;;-148.63;43.65
61528;BME280;47395;42.032;-8.634;2023-08-24T09:09:11;74767.34;;;-148.63;42.07
61528;BME280;47395;42.032;-8.634;2023-08-24T09:11:15;74687.34;;;-148.63;40.33
61528;BME280;47395;42.032;-8.634;2023-08-24T09:13:19;74605.34;;;-148.63;39.54
61528;BME280;47395;42.032;-8.634;2023-08-24T09:15:26;74555.34;;;-148.63;38.67
61528;BME280;47395;42.032;-8.634;2023-08-24T09:17:27;74625.34;;;-148.63;39.71
61528;BME280;47395;42.032;-8.634;2023-08-24T09:19:30;74525.34;;;-148.63;37.97
61528;BME280;47395;42.032;-8.634;2023-08-24T09:21:36;74373.31;;;-148.63;36.53
61528;BME280;47395;42.032;-8.634;2023-08-24T09:23:45;74389.31;;;-148.63;36.80
61528;BME280;47395;42.032;-8.634;2023-08-24T09:25:52;74445.31;;;-148.63;36.76
61528;BME280;47395;42.032;-8.634;2023-08-24T09:28:01;74609.34;;;-148.63;38.43
61528;BME280;47395;42.032;-8.634;2023-08-24T09:30:02;74749.34;;;-148.63;40.07
61528;BME280;47395;42.032;-8.634;2023-08-24T09:32:03;74781.34;;;-148.63;40.75
61528;BME280;47395;42.032;-8.634;2023-08-24T09:34:05;74897.38;;;-148.63;41.93
61528;BME280;47395;42.032;-8.634;2023-08-24T09:36:07;74861.38;;;-148.63;41.84
61528;BME280;47395;42.032;-8.634;2023-08-24T09:38:16;74909.38;;;-148.63;42.38
61528;BME280;47395;42.032;-8.634;2023-08-24T09:40:25;74883.38;;;-148.63;42.08
61528;BME280;47395;42.032;-8.634;2023-08-24T09:42:28;74879.38;;;-148.63;42.27
61528;BME280;47395;42.032;-8.634;2023-08-24T09:44:29;74901.38;;;-148.63;42.46
61528;BME280;47395;42.032;-8.634;2023-08-24T09:46:30;74871.38;;;-148.63;42.23
61528;BME280;47395;42.032;-8.634;2023-08-24T09:48:31;74883.38;;;-148.63;41.95
61528;BME280;47395;42.032;-8.634;2023-08-24T09:50:32;74881.38;;;-148.63;41.85
61528;BME280;47395;42.032;-8.634;2023-08-24T09:52:34;74847.34;;;-148.63;41.95
61528;BME280;47395;42.032;-8.634;2023-08-24T09:54:38;74899.38;;;-148.63;42.32
61528;BME280;47395;42.032;-8.634;2023-08-24T09:56:41;74919.38;;;-148.63;42.79
61528;BME280;47395;42.032;-8.634;2023-08-24T09:58:43;74865.38;;;-148.63;42.29
61528;BME280;47395;42.032;-8.634;2023-08-24T10:00:46;74789.34;;;-148.63;41.46
61528;BME280;47395;42.032;-8.634;2023-08-24T10:02:53;74805.34;;;-148.63;41.02
61528;BME280;47395;42.032;-8.634;2023-08-24T10:04:55;74759.34;;;-148.63;40.50
61528;BME280;47395;42.032;-8.634;2023-08-24T10:07:05;74717.34;;;-148.63;40.15
61528;BME280;47395;42.032;-8.634;2023-08-24T10:09:13;74671.34;;;-148.63;39.75
61528;BME280;47395;42.032;-8.634;2023-08-24T10:11:17;74693.34;;;-148.63;39.89
61528;BME280;47395;42.032;-8.634;2023-08-24T10:13:32;74721.34;;;-148.63;39.92
61528;BME280;47395;42.032;-8.634;2023-08-24T10:15:37;74803.34;;;-148.63;40.43
61528;BME280;47395;42.032;-8.634;2023-08-24T10:17:48;74777.34;;;-148.63;40.77
61528;BME280;47395;42.032;-8.634;2023-08-24T10:19:52;74779.34;;;-148.63;40.78
61528;BME280;47395;42.032;-8.634;2023-08-24T10:21:55;74875.38;;;-148.63;41.46
61528;BME280;47395;42.032;-8.634;2023-08-24T10:23:57;74931.38;;;-148.63;42.24
61528;BME280;47395;42.032;-8.634;2023-08-24T10:25:59;74791.34;;;-148.63;40.87
61528;BME280;47395;42.032;-8.634;2023-08-24T10:28:03;74723.34;;;-148.63;39.57
61528;BME280;47395;42.032;-8.634;2023-08-24T10:30:06;74743.34;;;-148.63;40.25
61528;BME280;47395;42.032;-8.634;2023-08-24T10:32:08;74465.34;;;-148.63;37.04